createdAt,value
2022-09-28T00:01:22.513Z,7.90
2022-09-28T00:03:51.547Z,7.70
2022-09-28T00:06:20.807Z,7.90
2022-09-28T00:11:18.913Z,8.00
2022-09-28T00:16:17.921Z,8.00
2022-09-28T00:18:45.790Z,8.00
2022-09-28T00:21:19.167Z,7.90
2022-09-28T00:26:33.656Z,8.00
2022-09-28T00:29:02.056Z,8.00
2022-09-28T00:31:32.631Z,8.00
2022-09-28T00:34:01.071Z,8.00
2022-09-28T00:36:30.251Z,8.00
2022-09-28T00:41:26.725Z,8.00
2022-09-28T00:46:33.611Z,8.00
2022-09-28T00:49:11.189Z,8.10
2022-09-28T00:51:41.024Z,8.10
2022-09-28T00:56:38.549Z,8.20
2022-09-28T01:06:33.301Z,8.20
2022-09-28T01:09:05.885Z,8.30
2022-09-28T01:11:35.022Z,8.40
2022-09-28T01:16:35.020Z,8.30
2022-09-28T01:24:15.976Z,8.40
2022-09-28T01:26:53.137Z,8.40
2022-09-28T01:29:28.939Z,8.40
2022-09-28T01:32:20.296Z,8.40
2022-09-28T01:35:01.705Z,8.40
2022-09-28T01:37:44.825Z,8.50
2022-09-28T01:40:14.874Z,8.30
2022-09-28T01:42:44.104Z,8.50
2022-09-28T01:45:26.112Z,8.40
2022-09-28T01:47:56.929Z,8.50
2022-09-28T01:50:27.798Z,8.40
2022-09-28T01:53:08.391Z,8.40
2022-09-28T01:55:40.101Z,8.20
2022-09-28T01:58:18.948Z,8.40
2022-09-28T02:00:53.464Z,8.40
2022-09-28T02:03:25.758Z,8.40
2022-09-28T02:06:20.213Z,8.40
2022-09-28T02:08:51.721Z,8.50
2022-09-28T02:11:20.364Z,8.60
2022-09-28T02:14:09.565Z,8.60
2022-09-28T02:16:47.742Z,8.50
2022-09-28T02:19:28.797Z,8.50
2022-09-28T02:22:07.399Z,8.50
2022-09-28T02:24:47.631Z,8.50
2022-09-28T02:27:19.719Z,8.40
2022-09-28T02:44:45.455Z,8.50
2022-09-28T02:47:35.258Z,8.50
2022-09-28T02:52:40.969Z,8.50
2022-09-28T02:55:16.871Z,8.50
2022-09-28T02:58:13.023Z,8.50
2022-09-28T03:01:24.558Z,8.50
2022-09-28T03:04:20.200Z,8.60
2022-09-28T03:06:54.929Z,8.60
2022-09-28T03:09:35.487Z,8.60
2022-09-28T03:12:10.336Z,8.60
2022-09-28T03:19:34.321Z,8.60
2022-09-28T03:36:44.673Z,8.80
2022-09-28T04:03:46.074Z,9.00
2022-09-28T04:06:14.189Z,9.00
2022-09-28T04:18:33.464Z,8.90
2022-09-28T04:31:12.776Z,8.90
2022-09-28T04:43:47.861Z,9.10
2022-09-28T04:56:10.427Z,9.00
2022-09-28T05:01:11.351Z,9.00
2022-09-28T05:08:35.366Z,8.80
2022-09-28T05:11:05.822Z,9.00
2022-09-28T05:13:35.816Z,9.00
2022-09-28T05:28:29.131Z,9.00
2022-09-28T05:31:03.905Z,9.10
2022-09-28T05:33:32.344Z,9.00
2022-09-28T05:36:01.541Z,9.10
2022-09-28T05:50:54.056Z,9.30
2022-09-28T05:55:48.689Z,9.30
2022-09-28T06:03:14.548Z,9.40
2022-09-28T06:08:10.720Z,9.40
2022-09-28T06:15:35.112Z,9.50
2022-09-28T06:18:07.538Z,9.50
2022-09-28T06:20:36.721Z,9.30
2022-09-28T06:28:06.853Z,9.50
2022-09-28T06:30:38.194Z,9.50
2022-09-28T06:33:07.017Z,9.60
2022-09-28T06:43:01.386Z,9.60
2022-09-28T06:45:29.870Z,9.50
2022-09-28T06:48:01.193Z,9.40
2022-09-28T06:50:33.620Z,9.60
2022-09-28T06:53:01.064Z,9.60
2022-09-28T06:55:29.150Z,9.60
2022-09-28T06:58:01.387Z,9.60
2022-09-28T07:00:31.263Z,9.60
2022-09-28T07:07:56.985Z,9.60
2022-09-28T07:10:27.793Z,9.60
2022-09-28T07:12:56.683Z,9.70
2022-09-28T07:15:24.415Z,9.70
2022-09-28T07:18:02.814Z,9.80
2022-09-28T07:20:49.164Z,9.70
2022-09-28T07:33:15.064Z,9.90
2022-09-28T07:35:43.005Z,9.70
2022-09-28T07:38:10.982Z,9.80
2022-09-28T07:45:54.089Z,9.90
2022-09-28T07:50:51.815Z,9.80
2022-09-28T07:53:20.259Z,9.80
2022-09-28T07:55:53.895Z,9.80
2022-09-28T08:00:49.514Z,9.70
2022-09-28T08:03:18.040Z,9.80
2022-09-28T08:10:47.295Z,9.70
2022-09-28T08:13:16.358Z,9.70
2022-09-28T08:25:55.361Z,9.80
2022-09-28T08:28:23.815Z,9.90
2022-09-28T08:30:51.171Z,9.90
2022-09-28T08:33:20.398Z,10.00
2022-09-28T08:41:10.573Z,10.00
2022-09-28T08:44:04.995Z,10.00
2022-09-28T08:46:41.989Z,9.80
2022-09-28T08:49:26.612Z,9.80
2022-09-28T08:51:56.287Z,9.80
2022-09-28T08:54:30.906Z,9.70
2022-09-28T08:57:03.515Z,9.70
2022-09-28T08:59:46.523Z,9.80
2022-09-28T09:02:22.434Z,9.90
2022-09-28T09:04:51.776Z,9.90
2022-09-28T09:07:27.204Z,9.80
2022-09-28T09:10:17.900Z,9.90
2022-09-28T09:15:24.637Z,9.90
2022-09-28T09:18:20.028Z,9.80
2022-09-28T09:20:59.132Z,9.70
2022-09-28T09:26:05.172Z,9.80
2022-09-28T09:28:51.684Z,9.80
2022-09-28T09:31:38.194Z,9.90
2022-09-28T09:34:20.834Z,9.80
2022-09-28T09:40:18.155Z,9.80
2022-09-28T09:45:41.250Z,9.90
2022-09-28T09:48:16.687Z,10.00
2022-09-28T09:53:44.537Z,10.10
2022-09-28T09:56:30.711Z,10.30
2022-09-28T09:59:04.564Z,10.30
2022-09-28T10:01:39.075Z,10.30
2022-09-28T10:04:28.329Z,10.30
2022-09-28T10:07:04.155Z,10.30
2022-09-28T10:09:35.675Z,10.40
2022-09-28T10:19:33.920Z,10.60
2022-09-28T10:22:04.954Z,10.70
2022-09-28T10:24:36.576Z,10.90
2022-09-28T10:27:11.552Z,10.80
2022-09-28T10:30:08.501Z,10.80
2022-09-28T10:32:44.640Z,10.80
2022-09-28T10:35:24.365Z,10.80
2022-09-28T10:38:03.242Z,10.90
2022-09-28T10:40:47.158Z,10.80
2022-09-28T10:43:37.016Z,10.80
2022-09-28T10:46:07.885Z,10.80
2022-09-28T10:48:49.255Z,10.90
2022-09-28T10:51:17.211Z,10.90
2022-09-28T10:54:02.289Z,10.90
2022-09-28T10:56:35.909Z,11.00
2022-09-28T11:01:34.478Z,11.00
2022-09-28T11:04:04.656Z,11.10
2022-09-28T11:06:36.962Z,11.20
2022-09-28T11:09:08.003Z,11.20
2022-09-28T11:11:42.084Z,11.20
2022-09-28T11:14:25.144Z,11.30
2022-09-28T11:17:28.938Z,11.30
2022-09-28T11:20:00.888Z,11.10
2022-09-28T11:22:32.289Z,11.30
2022-09-28T11:25:17.148Z,11.40
2022-09-28T11:27:52.938Z,11.40
2022-09-28T11:30:28.794Z,11.40
2022-09-28T11:33:03.473Z,11.30
2022-09-28T11:38:00.617Z,11.40
2022-09-28T11:40:50.227Z,11.40
2022-09-28T11:46:12.940Z,11.50
2022-09-28T11:48:45.969Z,11.70
2022-09-28T11:51:34.538Z,11.60
2022-09-28T11:54:28.907Z,11.70
2022-09-28T11:56:59.885Z,11.70
2022-09-28T11:59:36.125Z,11.80
2022-09-28T12:02:18.767Z,11.90
2022-09-28T12:04:56.927Z,11.90
2022-09-28T12:07:31.195Z,11.80
2022-09-28T12:10:10.099Z,11.80
2022-09-28T12:12:55.136Z,11.80
2022-09-28T12:15:26.701Z,11.80
2022-09-28T12:17:58.669Z,11.80
2022-09-28T12:20:35.673Z,11.80
2022-09-28T12:23:08.277Z,11.80
2022-09-28T12:25:42.703Z,11.80
2022-09-28T12:28:28.643Z,11.80
2022-09-28T12:30:59.218Z,11.80
2022-09-28T12:36:40.468Z,11.90
2022-09-28T12:39:53.483Z,11.90
2022-09-28T12:42:46.065Z,11.90
2022-09-28T12:45:53.083Z,11.90
2022-09-28T12:49:47.288Z,11.90
2022-09-28T12:51:57.596Z,11.90
2022-09-28T12:57:00.327Z,12.00
2022-09-28T12:59:36.865Z,12.00
2022-09-28T13:02:21.740Z,12.00
2022-09-28T13:05:10.215Z,12.00
2022-09-28T13:07:50.870Z,12.00
2022-09-28T13:10:42.808Z,11.70
2022-09-28T13:13:34.602Z,12.00
2022-09-28T13:16:38.930Z,12.10
2022-09-28T13:19:29.445Z,12.20
2022-09-28T13:22:06.245Z,12.30
2022-09-28T13:24:37.213Z,12.40
2022-09-28T13:27:13.321Z,12.50
2022-09-28T13:29:41.601Z,12.50
2022-09-28T13:32:11.654Z,12.60
2022-09-28T13:34:39.501Z,12.50
2022-09-28T13:37:19.864Z,12.50
2022-09-28T13:42:25.146Z,12.60
2022-09-28T13:45:02.189Z,12.70
2022-09-28T13:48:00.911Z,12.80
2022-09-28T13:50:53.117Z,12.50
2022-09-28T13:56:00.679Z,12.70
2022-09-28T13:58:57.947Z,12.70
2022-09-28T14:01:44.888Z,12.70
2022-09-28T14:04:20.843Z,12.50
2022-09-28T14:06:57.645Z,12.40
2022-09-28T14:12:00.629Z,12.20
2022-09-28T14:14:45.699Z,12.20
2022-09-28T14:17:21.479Z,12.20
2022-09-28T14:19:56.596Z,12.20
2022-09-28T14:25:06.531Z,12.30
2022-09-28T14:28:07.161Z,12.30
2022-09-28T14:35:51.917Z,12.30
2022-09-28T14:38:40.450Z,12.20
2022-09-28T14:41:28.104Z,12.20
2022-09-28T14:44:05.317Z,12.10
2022-09-28T14:46:46.321Z,12.10
2022-09-28T14:49:19.732Z,12.10
2022-09-28T14:51:55.952Z,12.20
2022-09-28T14:54:24.939Z,12.30
2022-09-28T14:56:57.553Z,12.30
2022-09-28T15:01:55.750Z,12.30
2022-09-28T15:04:28.708Z,12.30
2022-09-28T15:09:31.874Z,12.20
2022-09-28T15:12:16.732Z,12.10
2022-09-28T15:14:55.188Z,12.10
2022-09-28T15:17:39.732Z,12.10
2022-09-28T15:20:24.660Z,11.90
2022-09-28T15:22:58.423Z,11.80
2022-09-28T15:25:27.944Z,11.80
2022-09-28T15:28:02.353Z,11.70
2022-09-28T15:30:32.218Z,11.70
2022-09-28T15:33:19.492Z,11.70
2022-09-28T15:35:50.776Z,11.70
2022-09-28T15:43:21.613Z,11.50
2022-09-28T15:46:04.032Z,11.60
2022-09-28T15:48:33.826Z,11.50
2022-09-28T15:51:11.609Z,11.50
2022-09-28T15:53:45.732Z,11.50
2022-09-28T16:01:36.141Z,11.50
2022-09-28T16:04:51.730Z,11.50
2022-09-28T16:07:23.360Z,11.40
2022-09-28T16:09:58.545Z,11.40
2022-09-28T16:12:48.854Z,11.40
2022-09-28T16:17:57.796Z,11.40
2022-09-28T16:20:37.406Z,11.30
2022-09-28T16:23:16.450Z,11.30
2022-09-28T16:26:02.100Z,11.30
2022-09-28T16:28:35.130Z,11.30
2022-09-28T16:31:13.055Z,11.30
2022-09-28T16:33:56.883Z,11.30
2022-09-28T16:36:27.652Z,11.20
2022-09-28T16:41:26.458Z,11.20
2022-09-28T16:44:02.186Z,11.20
2022-09-28T16:46:36.261Z,11.10
2022-09-28T16:51:33.712Z,11.10
2022-09-28T16:54:34.884Z,11.20
2022-09-28T16:57:03.241Z,11.10
2022-09-28T17:04:25.730Z,11.00
2022-09-28T17:06:54.824Z,11.00
2022-09-28T17:09:22.855Z,11.00
2022-09-28T17:14:24.449Z,10.90
2022-09-28T17:17:13.725Z,10.80
2022-09-28T17:22:11.431Z,10.80
2022-09-28T17:59:10.650Z,10.60
2022-09-28T18:01:39.374Z,10.50
2022-09-28T18:04:08.879Z,10.50
2022-09-28T18:06:37.399Z,10.50
2022-09-28T18:09:05.465Z,10.40
2022-09-28T18:11:33.626Z,10.40
2022-09-28T18:16:28.966Z,10.40
2022-09-28T18:31:15.389Z,10.30
2022-09-28T18:38:39.972Z,10.10
2022-09-28T18:41:08.829Z,10.20
2022-09-28T18:46:11.236Z,10.20
2022-09-28T18:48:40.571Z,10.10
2022-09-28T18:51:11.460Z,9.90
2022-09-28T18:53:40.108Z,10.00
2022-09-28T18:56:13.204Z,10.00
2022-09-28T18:58:41.828Z,10.00
2022-09-28T19:08:58.158Z,9.90
2022-09-28T19:13:54.323Z,9.80
2022-09-28T19:16:24.120Z,9.80
2022-09-28T19:26:20.900Z,9.80
2022-09-28T19:28:49.017Z,9.80
2022-09-28T19:36:21.832Z,9.80
2022-09-28T19:41:39.498Z,9.80
2022-09-28T19:44:27.526Z,9.80
2022-09-28T19:47:11.614Z,9.70
2022-09-28T19:49:40.068Z,9.60
2022-09-28T19:52:16.522Z,9.70
2022-09-28T19:54:57.859Z,9.70
2022-09-28T19:57:29.206Z,9.70
2022-09-28T20:29:33.631Z,9.50
2022-09-28T20:56:37.794Z,9.80
2022-09-28T20:59:10.114Z,9.70
2022-09-28T21:04:06.399Z,9.70
2022-09-28T21:06:35.329Z,9.60
2022-09-28T21:09:03.176Z,9.60
2022-09-28T21:11:30.385Z,9.50
2022-09-28T21:14:02.001Z,9.50
2022-09-28T21:16:30.999Z,9.50
2022-09-28T21:21:25.931Z,9.50
2022-09-28T21:23:53.657Z,9.50
2022-09-28T21:26:25.649Z,9.40
2022-09-28T21:28:53.961Z,9.50
2022-09-28T21:51:08.044Z,9.30
2022-09-28T21:53:36.981Z,9.30
2022-09-28T21:56:06.483Z,9.30
2022-09-28T21:58:34.785Z,9.20
2022-09-28T22:01:07.498Z,9.20
2022-09-28T22:03:35.852Z,9.20
2022-09-28T22:06:04.351Z,9.20
2022-09-28T22:11:09.509Z,9.30
2022-09-28T22:13:41.060Z,9.30
2022-09-28T22:16:08.949Z,9.20
2022-09-28T22:21:09.794Z,9.20
2022-09-28T22:23:38.082Z,9.30
2022-09-28T22:26:13.801Z,9.30
2022-09-28T22:28:46.983Z,9.20
2022-09-28T22:31:14.908Z,9.20
2022-09-28T22:33:41.817Z,9.10
2022-09-28T22:41:04.079Z,9.30
2022-09-28T22:46:13.466Z,9.30
2022-09-28T22:56:06.728Z,9.30
2022-09-28T22:58:34.841Z,9.30
2022-09-28T23:01:08.336Z,9.30
2022-09-28T23:16:00.318Z,9.20
2022-09-28T23:18:32.996Z,9.10
2022-09-28T23:21:02.333Z,9.10
2022-09-28T23:28:26.179Z,9.00
2022-09-28T23:30:53.679Z,9.10
2022-09-28T23:33:21.657Z,9.20
2022-09-28T23:38:18.225Z,9.10
2022-09-28T23:40:48.660Z,9.10
2022-09-28T23:45:43.954Z,9.00
